createdAt,value
2019-05-09T00:01:07.504Z,37.30
2019-05-09T00:03:34.721Z,37.30
2019-05-09T00:06:04.443Z,37.30
2019-05-09T00:08:30.825Z,37.40
2019-05-09T00:10:58.051Z,37.30
2019-05-09T00:13:25.303Z,37.20
2019-05-09T00:15:54.143Z,37.20
2019-05-09T00:18:23.204Z,37.20
2019-05-09T00:20:50.162Z,37.30
2019-05-09T00:23:17.358Z,37.30
2019-05-09T00:25:44.422Z,37.20
2019-05-09T00:28:13.551Z,37.20
2019-05-09T00:30:40.368Z,37.10
2019-05-09T00:33:07.778Z,37.00
2019-05-09T00:35:44.159Z,37.10
2019-05-09T00:40:55.011Z,37.00
2019-05-09T00:43:13.223Z,37.00
2019-05-09T00:45:43.883Z,37.00
2019-05-09T00:48:11.124Z,37.00
2019-05-09T00:50:38.354Z,36.90
2019-05-09T00:53:05.483Z,36.80
2019-05-09T00:55:33.241Z,37.00
2019-05-09T00:58:00.576Z,36.90
2019-05-09T01:00:27.716Z,36.90
2019-05-09T01:02:55.011Z,37.40
2019-05-09T01:05:23.941Z,37.60
2019-05-09T01:07:53.625Z,36.90
2019-05-09T01:10:20.009Z,36.90
2019-05-09T01:12:47.115Z,36.90
2019-05-09T01:15:14.205Z,36.80
2019-05-09T01:17:41.306Z,36.90
2019-05-09T01:20:08.371Z,36.80
2019-05-09T01:22:35.494Z,36.90
2019-05-09T01:25:04.206Z,37.00
2019-05-09T01:27:33.807Z,36.80
2019-05-09T01:30:00.383Z,36.90
2019-05-09T01:32:27.478Z,36.80
2019-05-09T01:34:54.817Z,36.80
2019-05-09T01:37:23.753Z,36.90
2019-05-09T01:39:50.736Z,36.80
2019-05-09T01:42:17.859Z,36.90
2019-05-09T01:44:44.948Z,36.80
2019-05-09T01:47:14.027Z,36.80
2019-05-09T01:49:43.030Z,36.80
2019-05-09T01:52:09.789Z,36.80
2019-05-09T01:54:38.564Z,36.90
2019-05-09T01:57:05.712Z,36.80
2019-05-09T01:59:33.871Z,36.90
2019-05-09T02:02:07.947Z,36.80
2019-05-09T02:04:30.332Z,36.70
2019-05-09T02:06:57.452Z,36.80
2019-05-09T02:09:24.597Z,36.80
2019-05-09T02:11:54.329Z,36.70
2019-05-09T02:14:20.547Z,36.80
2019-05-09T02:16:48.926Z,36.70
2019-05-09T02:19:16.326Z,36.70
2019-05-09T02:21:43.805Z,36.70
2019-05-09T02:24:11.207Z,36.70
2019-05-09T02:26:38.500Z,36.70
2019-05-09T02:29:05.710Z,36.70
2019-05-09T02:31:35.421Z,36.70
2019-05-09T02:34:04.624Z,36.70
2019-05-09T02:36:32.207Z,36.70
2019-05-09T02:38:59.378Z,36.80
2019-05-09T02:41:28.665Z,36.70
2019-05-09T02:43:58.364Z,36.70
2019-05-09T02:49:15.547Z,36.80
2019-05-09T02:51:42.783Z,36.70
2019-05-09T02:54:10.220Z,36.70
2019-05-09T02:56:38.541Z,36.60
2019-05-09T02:59:09.298Z,36.70
2019-05-09T03:01:35.058Z,36.70
2019-05-09T03:04:02.218Z,36.70
2019-05-09T03:06:29.423Z,36.70
2019-05-09T03:08:59.101Z,36.60
2019-05-09T03:11:28.696Z,36.70
2019-05-09T03:13:54.152Z,36.70
2019-05-09T03:16:21.314Z,36.80
2019-05-09T03:18:49.379Z,36.80
2019-05-09T03:21:19.218Z,36.80
2019-05-09T03:23:48.712Z,36.80
2019-05-09T03:26:14.665Z,36.80
2019-05-09T03:28:41.788Z,36.80
2019-05-09T03:31:09.705Z,36.90
2019-05-09T03:33:40.521Z,36.90
2019-05-09T03:36:07.816Z,36.90
2019-05-09T03:38:34.707Z,36.80
2019-05-09T03:41:01.859Z,36.80
2019-05-09T03:43:29.024Z,36.80
2019-05-09T03:45:58.390Z,36.90
2019-05-09T03:48:33.774Z,36.90
2019-05-09T03:51:00.863Z,36.90
2019-05-09T03:53:28.005Z,37.00
2019-05-09T03:55:57.396Z,36.90
2019-05-09T03:58:23.879Z,37.00
2019-05-09T04:00:51.123Z,36.80
2019-05-09T04:03:20.348Z,36.90
2019-05-09T04:05:58.398Z,36.90
2019-05-09T04:08:18.075Z,36.80
2019-05-09T04:10:44.631Z,36.90
2019-05-09T04:13:11.926Z,36.80
2019-05-09T04:15:39.084Z,36.90
2019-05-09T04:18:08.113Z,37.10
2019-05-09T04:20:35.069Z,36.80
2019-05-09T04:23:02.346Z,36.70
2019-05-09T04:25:29.471Z,36.70
2019-05-09T04:28:07.345Z,36.70
2019-05-09T04:30:34.201Z,36.70
2019-05-09T04:33:01.303Z,36.60
2019-05-09T04:35:28.429Z,36.60
2019-05-09T04:37:55.547Z,36.70
2019-05-09T04:40:22.745Z,36.60
2019-05-09T04:42:49.835Z,37.20
2019-05-09T04:45:17.725Z,36.90
2019-05-09T04:47:47.080Z,36.80
2019-05-09T04:50:15.421Z,36.90
2019-05-09T04:52:42.884Z,37.40
2019-05-09T04:55:10.073Z,36.90
2019-05-09T04:57:52.037Z,37.00
2019-05-09T05:00:12.035Z,36.90
2019-05-09T05:02:39.198Z,36.90
2019-05-09T05:05:07.757Z,37.10
2019-05-09T05:07:37.479Z,37.60
2019-05-09T05:10:04.057Z,37.40
2019-05-09T05:12:31.187Z,37.40
2019-05-09T05:14:58.257Z,37.30
2019-05-09T05:17:25.319Z,37.30
2019-05-09T05:19:52.397Z,38.40
2019-05-09T05:22:20.527Z,37.50
2019-05-09T05:24:48.727Z,37.60
2019-05-09T05:27:18.638Z,37.70
2019-05-09T05:29:44.838Z,37.60
2019-05-09T05:32:12.264Z,37.70
2019-05-09T05:34:39.337Z,37.70
2019-05-09T05:37:07.587Z,38.50
2019-05-09T05:39:34.785Z,38.00
2019-05-09T05:42:01.872Z,38.40
2019-05-09T05:44:28.974Z,38.20
2019-05-09T05:46:58.314Z,38.70
2019-05-09T05:49:24.851Z,40.00
2019-05-09T05:51:51.916Z,41.30
2019-05-09T05:54:18.996Z,41.20
2019-05-09T05:56:47.475Z,41.60
2019-05-09T05:59:14.751Z,42.10
2019-05-09T06:01:41.862Z,42.30
2019-05-09T06:04:09.036Z,42.30
2019-05-09T06:06:37.516Z,42.40
2019-05-09T06:09:04.707Z,42.30
2019-05-09T06:11:34.530Z,42.40
2019-05-09T06:14:08.740Z,42.40
2019-05-09T06:16:30.350Z,42.50
2019-05-09T06:18:58.620Z,42.50
2019-05-09T06:21:28.103Z,42.50
2019-05-09T06:23:54.694Z,42.60
2019-05-09T06:26:21.777Z,42.70
2019-05-09T06:28:48.860Z,43.30
2019-05-09T06:31:17.899Z,42.70
2019-05-09T06:33:47.227Z,42.60
2019-05-09T06:36:13.544Z,42.40
2019-05-09T06:38:40.638Z,42.40
2019-05-09T06:41:08.852Z,42.30
2019-05-09T06:43:39.397Z,42.70
2019-05-09T06:46:05.366Z,42.80
2019-05-09T06:48:32.466Z,42.90
2019-05-09T06:50:59.536Z,43.00
2019-05-09T06:53:27.280Z,42.80
2019-05-09T06:55:54.370Z,42.50
2019-05-09T06:58:21.520Z,42.20
2019-05-09T07:00:48.959Z,41.80
2019-05-09T07:03:18.356Z,41.70
2019-05-09T07:05:45.133Z,41.60
2019-05-09T07:08:12.201Z,40.80
2019-05-09T07:10:39.295Z,39.90
2019-05-09T07:13:07.958Z,39.20
2019-05-09T07:15:37.535Z,39.00
2019-05-09T07:18:04.204Z,39.00
2019-05-09T07:20:31.291Z,39.00
2019-05-09T07:22:58.529Z,38.80
2019-05-09T07:25:27.613Z,38.90
2019-05-09T07:27:54.460Z,38.80
2019-05-09T07:30:21.619Z,39.00
2019-05-09T07:32:48.857Z,38.80
2019-05-09T07:35:18.414Z,39.10
2019-05-09T07:37:44.824Z,39.70
2019-05-09T07:40:12.863Z,39.30
2019-05-09T07:42:39.986Z,39.40
2019-05-09T07:45:08.925Z,39.40
2019-05-09T07:47:36.027Z,39.60
2019-05-09T07:50:03.204Z,39.40
2019-05-09T07:52:30.322Z,39.80
2019-05-09T07:54:58.142Z,39.90
2019-05-09T07:57:25.358Z,39.30
2019-05-09T07:59:52.453Z,39.50
2019-05-09T08:02:19.568Z,40.40
2019-05-09T08:04:48.872Z,39.60
2019-05-09T08:07:17.563Z,39.40
2019-05-09T08:09:44.388Z,39.60
2019-05-09T08:12:11.598Z,39.10
2019-05-09T08:14:38.762Z,39.40
2019-05-09T08:17:05.848Z,39.40
2019-05-09T08:19:34.772Z,39.70
2019-05-09T08:22:01.875Z,39.30
2019-05-09T08:24:28.977Z,39.30
2019-05-09T08:26:58.010Z,39.60
2019-05-09T08:29:24.838Z,39.70
2019-05-09T08:31:51.980Z,39.60
2019-05-09T08:34:19.089Z,39.70
2019-05-09T08:36:47.726Z,39.60
2019-05-09T08:39:15.186Z,39.80
2019-05-09T08:41:42.299Z,39.80
2019-05-09T08:44:11.777Z,39.90
2019-05-09T08:46:41.835Z,40.00
2019-05-09T08:49:08.906Z,39.80
2019-05-09T08:51:47.340Z,39.80
2019-05-09T08:54:04.820Z,39.90
2019-05-09T08:56:31.881Z,39.80
2019-05-09T08:59:01.914Z,39.70
2019-05-09T09:01:45.926Z,39.80
2019-05-09T09:03:57.592Z,39.70
2019-05-09T09:06:24.877Z,39.80
2019-05-09T09:08:52.008Z,39.90
2019-05-09T09:11:19.110Z,39.70
2019-05-09T09:13:48.119Z,39.70
2019-05-09T09:16:21.447Z,39.10
2019-05-09T09:18:44.099Z,39.50
2019-05-09T09:21:11.205Z,41.00
2019-05-09T09:23:43.889Z,40.50
2019-05-09T09:26:08.129Z,39.50
2019-05-09T09:28:35.449Z,39.10
2019-05-09T09:31:03.098Z,39.10
2019-05-09T09:33:30.203Z,39.10
2019-05-09T09:35:57.986Z,39.20
2019-05-09T09:38:25.262Z,39.40
2019-05-09T09:40:52.371Z,39.30
2019-05-09T09:43:20.410Z,39.60
2019-05-09T09:45:48.192Z,39.60
2019-05-09T09:48:18.024Z,39.40
2019-05-09T09:50:49.088Z,39.70
2019-05-09T09:53:14.145Z,39.90
2019-05-09T09:55:41.263Z,39.90
2019-05-09T09:58:08.498Z,39.80
2019-05-09T10:00:38.099Z,39.40
2019-05-09T10:03:04.599Z,40.00
2019-05-09T10:05:31.670Z,39.80
2019-05-09T10:07:58.788Z,39.80
2019-05-09T10:10:28.592Z,39.70
2019-05-09T10:12:54.726Z,39.80
2019-05-09T10:15:21.819Z,40.10
2019-05-09T10:17:48.920Z,40.00
2019-05-09T10:20:18.166Z,40.10
2019-05-09T10:22:55.343Z,39.90
2019-05-09T10:25:14.078Z,39.90
2019-05-09T10:27:41.382Z,39.90
2019-05-09T10:30:09.080Z,40.00
2019-05-09T10:32:38.369Z,39.90
2019-05-09T10:35:05.268Z,39.90
2019-05-09T10:37:32.399Z,39.90
2019-05-09T10:39:59.578Z,39.80
2019-05-09T10:42:28.610Z,39.70
2019-05-09T10:44:55.508Z,39.70
2019-05-09T10:47:22.623Z,39.80
2019-05-09T10:49:49.717Z,39.70
2019-05-09T10:52:18.269Z,39.80
2019-05-09T10:54:45.482Z,39.90
2019-05-09T10:57:12.641Z,39.90
2019-05-09T10:59:39.701Z,39.80
2019-05-09T11:02:09.573Z,39.80
2019-05-09T11:04:37.965Z,39.70
2019-05-09T11:07:04.381Z,39.70
2019-05-09T11:09:31.485Z,39.60
2019-05-09T11:12:01.041Z,39.60
2019-05-09T11:14:36.179Z,39.60
2019-05-09T11:17:07.708Z,39.60
2019-05-09T11:19:25.051Z,39.60
2019-05-09T11:21:52.147Z,39.60
2019-05-09T11:24:19.320Z,39.80
2019-05-09T11:26:48.137Z,39.60
2019-05-09T11:29:15.376Z,39.40
2019-05-09T11:31:42.464Z,39.80
2019-05-09T11:34:09.665Z,39.50
2019-05-09T11:36:37.923Z,39.50
2019-05-09T11:39:10.274Z,39.90
2019-05-09T11:41:34.208Z,40.20
2019-05-09T11:44:01.378Z,40.20
2019-05-09T11:46:29.002Z,40.20
2019-05-09T11:48:58.457Z,40.30
2019-05-09T11:51:25.223Z,40.20
2019-05-09T11:53:52.336Z,40.20
2019-05-09T11:56:19.450Z,40.30
2019-05-09T11:58:48.077Z,40.20
2019-05-09T12:01:15.325Z,40.20
2019-05-09T12:03:42.424Z,40.10
2019-05-09T12:06:09.542Z,40.20
2019-05-09T12:08:38.742Z,40.40
2019-05-09T12:11:08.153Z,40.40
2019-05-09T12:13:34.249Z,40.40
2019-05-09T12:16:01.549Z,40.30
2019-05-09T12:18:29.267Z,40.40
2019-05-09T12:20:57.629Z,40.50
2019-05-09T12:23:25.981Z,40.60
2019-05-09T12:25:53.067Z,40.60
2019-05-09T12:28:20.146Z,40.60
2019-05-09T12:30:49.004Z,40.60
2019-05-09T12:33:18.644Z,40.70
2019-05-09T12:35:47.600Z,40.70
2019-05-09T12:38:13.760Z,40.70
2019-05-09T12:40:40.856Z,40.70
2019-05-09T12:43:09.117Z,40.60
2019-05-09T12:45:38.737Z,40.50
2019-05-09T12:48:13.871Z,40.50
2019-05-09T12:50:38.699Z,40.50
2019-05-09T12:53:05.718Z,40.50
2019-05-09T12:55:32.776Z,40.40
2019-05-09T12:57:59.972Z,40.50
2019-05-09T13:00:28.431Z,40.50
2019-05-09T13:02:55.654Z,40.50
2019-05-09T13:05:22.756Z,40.60
2019-05-09T13:07:49.839Z,40.60
2019-05-09T13:10:19.417Z,40.60
2019-05-09T13:12:48.388Z,40.40
2019-05-09T13:15:14.613Z,40.50
2019-05-09T13:17:41.785Z,40.70
2019-05-09T13:20:09.004Z,40.70
2019-05-09T13:22:36.197Z,40.60
2019-05-09T13:25:03.331Z,40.70
2019-05-09T13:27:32.185Z,40.50
2019-05-09T13:29:59.716Z,40.50
2019-05-09T13:32:27.968Z,40.70
2019-05-09T13:34:57.642Z,40.40
2019-05-09T13:37:24.133Z,40.40
2019-05-09T13:39:51.222Z,40.20
2019-05-09T13:42:19.619Z,40.50
2019-05-09T13:44:47.606Z,40.40
2019-05-09T13:47:15.173Z,40.50
2019-05-09T13:49:42.290Z,40.90
2019-05-09T13:52:10.112Z,40.50
2019-05-09T13:54:38.228Z,40.30
2019-05-09T13:57:05.600Z,40.40
2019-05-09T13:59:33.460Z,40.40
2019-05-09T14:02:00.583Z,40.30
2019-05-09T14:04:28.600Z,40.20
2019-05-09T14:06:56.012Z,40.20
2019-05-09T14:09:23.166Z,40.20
2019-05-09T14:11:50.321Z,40.40
2019-05-09T14:14:18.060Z,40.40
2019-05-09T14:16:47.664Z,40.20
2019-05-09T14:19:40.590Z,41.00
2019-05-09T14:21:42.944Z,40.30
2019-05-09T14:24:15.358Z,40.10
2019-05-09T14:26:39.181Z,40.10
2019-05-09T14:29:06.381Z,40.30
2019-05-09T14:31:33.461Z,40.10
2019-05-09T14:34:00.571Z,40.00
2019-05-09T14:36:27.869Z,39.90
2019-05-09T14:38:57.801Z,40.00
2019-05-09T14:41:23.975Z,39.90
2019-05-09T14:43:51.042Z,39.90
2019-05-09T14:46:18.318Z,39.80
2019-05-09T14:48:47.999Z,39.80
2019-05-09T14:51:14.571Z,39.80
2019-05-09T14:53:41.708Z,40.20
2019-05-09T14:56:08.946Z,39.80
2019-05-09T14:58:38.575Z,39.80
2019-05-09T15:01:04.872Z,39.80
2019-05-09T15:03:34.336Z,39.80
2019-05-09T15:06:01.391Z,39.70
2019-05-09T15:08:28.524Z,39.70
2019-05-09T15:10:58.041Z,39.80
2019-05-09T15:13:24.525Z,39.70
2019-05-09T15:15:51.675Z,40.00
2019-05-09T15:18:18.736Z,39.90
2019-05-09T15:20:51.254Z,39.80
2019-05-09T15:23:19.632Z,39.70
2019-05-09T15:25:48.016Z,39.80
2019-05-09T15:28:17.422Z,39.70
2019-05-09T15:30:44.278Z,39.70
2019-05-09T15:33:11.344Z,39.80
2019-05-09T15:35:39.239Z,40.00
2019-05-09T15:38:08.590Z,40.40
2019-05-09T15:40:35.241Z,39.80
2019-05-09T15:43:02.362Z,39.80
2019-05-09T15:45:29.482Z,40.10
2019-05-09T15:47:58.360Z,40.10
2019-05-09T15:50:27.688Z,40.00
2019-05-09T15:52:54.450Z,39.90
2019-05-09T15:55:21.492Z,40.00
2019-05-09T15:57:48.719Z,40.40
2019-05-09T16:00:15.772Z,40.20
2019-05-09T16:02:44.666Z,40.10
2019-05-09T16:05:11.745Z,39.90
2019-05-09T16:07:38.922Z,39.90
2019-05-09T16:10:08.410Z,39.90
2019-05-09T16:12:34.917Z,40.00
2019-05-09T16:15:02.078Z,40.00
2019-05-09T16:17:29.157Z,40.10
2019-05-09T16:19:58.157Z,40.20
2019-05-09T16:22:25.311Z,40.10
2019-05-09T16:24:52.584Z,40.00
2019-05-09T16:27:19.910Z,40.00
2019-05-09T16:29:48.603Z,40.00
2019-05-09T16:32:17.780Z,40.00
2019-05-09T16:34:44.875Z,39.70
2019-05-09T16:37:11.991Z,39.80
2019-05-09T16:39:41.373Z,40.30
2019-05-09T16:42:08.712Z,40.40
2019-05-09T16:44:37.810Z,40.20
2019-05-09T16:47:04.682Z,40.00
2019-05-09T16:49:32.465Z,40.40
2019-05-09T16:51:59.893Z,40.50
2019-05-09T16:54:28.341Z,40.30
2019-05-09T16:56:57.466Z,40.30
2019-05-09T16:59:24.523Z,40.10
2019-05-09T17:01:51.610Z,40.20
2019-05-09T17:04:19.402Z,40.00
2019-05-09T17:06:49.380Z,39.70
2019-05-09T17:09:17.995Z,39.80
2019-05-09T17:11:47.980Z,39.70
2019-05-09T17:14:14.553Z,39.70
2019-05-09T17:16:41.699Z,39.70
2019-05-09T17:19:08.807Z,39.60
2019-05-09T17:21:38.820Z,39.70
2019-05-09T17:24:08.116Z,39.60
2019-05-09T17:26:37.746Z,39.70
2019-05-09T17:29:04.077Z,39.50
2019-05-09T17:31:31.147Z,39.60
2019-05-09T17:34:01.749Z,39.60
2019-05-09T17:36:29.069Z,39.50
2019-05-09T17:38:56.324Z,39.60
2019-05-09T17:41:23.488Z,39.50
2019-05-09T17:43:50.581Z,39.60
2019-05-09T17:46:19.181Z,39.60
2019-05-09T17:48:47.923Z,39.50
2019-05-09T17:51:18.651Z,39.50
2019-05-09T17:53:44.108Z,39.60
2019-05-09T17:56:12.815Z,39.50
2019-05-09T17:58:39.903Z,39.50
2019-05-09T18:01:07.908Z,39.50
2019-05-09T18:03:35.241Z,39.50
2019-05-09T18:06:02.336Z,39.60
2019-05-09T18:08:29.424Z,39.50
2019-05-09T18:10:58.349Z,39.50
2019-05-09T18:13:28.633Z,39.60
2019-05-09T18:15:54.274Z,39.60
2019-05-09T18:18:21.339Z,39.60
2019-05-09T18:20:48.439Z,39.70
2019-05-09T18:23:17.478Z,39.50
2019-05-09T18:25:44.324Z,39.60
2019-05-09T18:28:11.388Z,39.50
2019-05-09T18:30:38.965Z,39.60
2019-05-09T18:33:07.561Z,40.20
2019-05-09T18:35:34.981Z,39.70
2019-05-09T18:38:03.321Z,39.70
2019-05-09T18:40:30.408Z,39.70
2019-05-09T18:42:58.367Z,39.60
2019-05-09T18:45:28.067Z,39.60
2019-05-09T18:47:54.492Z,39.80
2019-05-09T18:50:21.636Z,39.70
2019-05-09T18:52:48.753Z,39.70
2019-05-09T18:55:15.848Z,39.80
2019-05-09T18:57:42.910Z,39.90
2019-05-09T19:00:10.004Z,40.00
2019-05-09T19:02:37.107Z,40.00
2019-05-09T19:05:04.272Z,40.00
2019-05-09T19:07:31.375Z,40.10
2019-05-09T19:09:58.582Z,40.60
2019-05-09T19:12:27.273Z,40.20
2019-05-09T19:14:54.432Z,40.00
2019-05-09T19:17:22.482Z,39.90
2019-05-09T19:19:49.522Z,39.90
2019-05-09T19:22:22.380Z,39.80
2019-05-09T19:24:45.512Z,39.60
2019-05-09T19:27:12.697Z,39.80
2019-05-09T19:29:39.848Z,39.70
2019-05-09T19:32:06.955Z,39.60
2019-05-09T19:34:34.046Z,39.50
2019-05-09T19:37:04.226Z,39.40
2019-05-09T19:39:31.445Z,39.50
2019-05-09T19:41:58.554Z,39.50
2019-05-09T19:44:25.661Z,39.60
2019-05-09T19:46:52.727Z,39.70
2019-05-09T19:49:19.841Z,39.90
2019-05-09T19:51:46.907Z,39.80
2019-05-09T19:54:14.014Z,39.60
2019-05-09T19:56:41.079Z,40.00
2019-05-09T19:59:08.662Z,39.60
2019-05-09T20:01:35.914Z,39.90
2019-05-09T20:04:02.992Z,39.80
2019-05-09T20:06:30.390Z,39.60
2019-05-09T20:08:57.573Z,39.60
2019-05-09T20:11:25.021Z,40.30
2019-05-09T20:13:52.190Z,40.40
2019-05-09T20:16:19.831Z,39.90
2019-05-09T20:18:46.927Z,39.30
2019-05-09T20:21:14.041Z,39.60
2019-05-09T20:23:41.428Z,39.90
2019-05-09T20:26:11.404Z,39.50
2019-05-09T20:28:38.495Z,39.70
2019-05-09T20:31:05.609Z,39.60
2019-05-09T20:33:32.854Z,40.30
2019-05-09T20:36:00.020Z,39.80
2019-05-09T20:38:27.100Z,39.70
2019-05-09T20:40:54.201Z,40.40
2019-05-09T20:43:21.288Z,39.90
2019-05-09T20:45:51.573Z,40.50
2019-05-09T20:48:22.081Z,41.30
2019-05-09T20:50:49.216Z,40.90
2019-05-09T20:53:16.308Z,41.60
2019-05-09T20:55:43.563Z,41.90
2019-05-09T20:58:12.341Z,41.80
2019-05-09T21:00:39.493Z,42.10
2019-05-09T21:03:08.149Z,42.20
2019-05-09T21:05:35.737Z,42.20
2019-05-09T21:08:02.887Z,42.10
2019-05-09T21:10:30.056Z,42.10
2019-05-09T21:12:57.211Z,42.10
2019-05-09T21:15:24.695Z,42.30
2019-05-09T21:17:53.482Z,42.70
2019-05-09T21:20:20.581Z,42.50
2019-05-09T21:22:47.701Z,42.40
2019-05-09T21:25:14.767Z,42.50
2019-05-09T21:27:41.862Z,42.70
2019-05-09T21:30:08.924Z,42.80
2019-05-09T21:32:36.112Z,42.70
2019-05-09T21:35:03.340Z,42.60
2019-05-09T21:37:30.429Z,42.60
2019-05-09T21:39:57.501Z,42.60
2019-05-09T21:42:24.589Z,42.50
2019-05-09T21:44:52.025Z,42.60
2019-05-09T21:47:19.850Z,42.50
2019-05-09T21:49:46.953Z,42.70
2019-05-09T21:52:14.210Z,42.70
2019-05-09T21:54:41.335Z,42.80
2019-05-09T21:57:08.455Z,42.70
2019-05-09T21:59:35.581Z,42.60
2019-05-09T22:02:02.677Z,42.70
2019-05-09T22:04:29.763Z,42.60
2019-05-09T22:06:56.837Z,42.60
2019-05-09T22:09:23.921Z,42.60
2019-05-09T22:11:51.028Z,42.70
2019-05-09T22:14:18.079Z,43.00
2019-05-09T22:16:45.171Z,43.50
2019-05-09T22:19:12.319Z,43.10
2019-05-09T22:21:39.431Z,43.20
2019-05-09T22:24:06.514Z,43.40
2019-05-09T22:26:33.660Z,43.50
2019-05-09T22:29:00.940Z,43.60
2019-05-09T22:31:28.066Z,43.60
2019-05-09T22:33:55.192Z,43.70
2019-05-09T22:36:22.362Z,43.80
2019-05-09T22:38:49.471Z,43.70
2019-05-09T22:41:16.534Z,43.90
2019-05-09T22:43:43.607Z,43.90
2019-05-09T22:46:10.703Z,43.90
2019-05-09T22:48:37.839Z,43.90
2019-05-09T22:51:04.930Z,43.90
2019-05-09T22:53:32.016Z,43.80
2019-05-09T22:55:59.255Z,44.00
2019-05-09T22:58:26.359Z,43.90
2019-05-09T23:00:53.440Z,43.90
2019-05-09T23:03:20.531Z,43.80
2019-05-09T23:05:47.648Z,43.90
2019-05-09T23:08:14.711Z,43.80
2019-05-09T23:10:41.811Z,43.80
2019-05-09T23:13:08.873Z,43.80
2019-05-09T23:15:35.958Z,43.90
2019-05-09T23:18:03.021Z,43.80
2019-05-09T23:20:30.159Z,43.80
2019-05-09T23:22:57.514Z,44.30
2019-05-09T23:25:24.729Z,43.70
2019-05-09T23:27:51.785Z,43.80
2019-05-09T23:30:18.939Z,43.80
2019-05-09T23:32:46.089Z,43.90
2019-05-09T23:35:13.294Z,43.80
2019-05-09T23:37:40.373Z,43.80
2019-05-09T23:40:09.710Z,43.80
2019-05-09T23:42:36.813Z,43.80
2019-05-09T23:45:03.989Z,43.90
2019-05-09T23:47:31.110Z,43.80
2019-05-09T23:49:58.253Z,43.80
2019-05-09T23:52:25.484Z,43.80
2019-05-09T23:54:52.585Z,43.90
2019-05-09T23:57:19.654Z,44.00
2019-05-09T23:59:46.774Z,43.90
